sensor_id;sensor_type;location;lat;lon;timestamp;P1;durP1;ratioP1;P2;durP2;ratioP2
16667;SDS011;8447;52.630;4.734;2024-02-26T00:00:47;4.53;;;3.77;;
16667;SDS011;8447;52.630;4.734;2024-02-26T00:03:15;6.00;;;3.50;;
16667;SDS011;8447;52.630;4.734;2024-02-26T00:05:41;6.63;;;3.40;;
16667;SDS011;8447;52.630;4.734;2024-02-26T00:08:08;4.63;;;3.77;;
16667;SDS011;8447;52.630;4.734;2024-02-26T00:10:34;7.27;;;3.17;;
16667;SDS011;8447;52.630;4.734;2024-02-26T00:13:00;6.37;;;4.10;;
16667;SDS011;8447;52.630;4.734;2024-02-26T00:15:27;5.63;;;3.57;;
16667;SDS011;8447;52.630;4.734;2024-02-26T00:17:54;4.30;;;3.90;;
16667;SDS011;8447;52.630;4.734;2024-02-26T00:20:21;3.93;;;3.30;;
16667;SDS011;8447;52.630;4.734;2024-02-26T00:22:48;4.43;;;3.63;;
16667;SDS011;8447;52.630;4.734;2024-02-26T00:25:14;7.47;;;4.30;;
16667;SDS011;8447;52.630;4.734;2024-02-26T00:27:41;4.63;;;3.40;;
16667;SDS011;8447;52.630;4.734;2024-02-26T00:30:09;5.63;;;3.97;;
16667;SDS011;8447;52.630;4.734;2024-02-26T00:32:35;3.97;;;3.07;;
16667;SDS011;8447;52.630;4.734;2024-02-26T00:35:02;5.47;;;3.90;;
16667;SDS011;8447;52.630;4.734;2024-02-26T00:37:29;6.33;;;3.87;;
16667;SDS011;8447;52.630;4.734;2024-02-26T00:39:56;5.17;;;3.63;;
16667;SDS011;8447;52.630;4.734;2024-02-26T00:42:22;4.47;;;3.70;;
16667;SDS011;8447;52.630;4.734;2024-02-26T00:44:48;5.33;;;3.87;;
16667;SDS011;8447;52.630;4.734;2024-02-26T00:47:17;3.83;;;3.27;;
16667;SDS011;8447;52.630;4.734;2024-02-26T00:49:44;4.40;;;3.10;;
16667;SDS011;8447;52.630;4.734;2024-02-26T00:52:10;3.90;;;3.47;;
16667;SDS011;8447;52.630;4.734;2024-02-26T00:54:38;4.53;;;3.80;;
16667;SDS011;8447;52.630;4.734;2024-02-26T00:57:04;5.83;;;4.27;;
16667;SDS011;8447;52.630;4.734;2024-02-26T00:59:31;4.27;;;3.80;;
16667;SDS011;8447;52.630;4.734;2024-02-26T01:01:57;4.57;;;3.50;;
16667;SDS011;8447;52.630;4.734;2024-02-26T01:04:26;4.60;;;4.13;;
16667;SDS011;8447;52.630;4.734;2024-02-26T01:06:53;5.43;;;4.63;;
16667;SDS011;8447;52.630;4.734;2024-02-26T01:09:19;5.10;;;4.30;;
16667;SDS011;8447;52.630;4.734;2024-02-26T01:11:47;7.40;;;4.97;;
16667;SDS011;8447;52.630;4.734;2024-02-26T01:14:13;5.53;;;4.20;;
16667;SDS011;8447;52.630;4.734;2024-02-26T01:16:40;7.23;;;5.10;;
16667;SDS011;8447;52.630;4.734;2024-02-26T01:19:06;6.43;;;4.63;;
16667;SDS011;8447;52.630;4.734;2024-02-26T01:21:32;6.27;;;4.93;;
16667;SDS011;8447;52.630;4.734;2024-02-26T01:23:59;6.83;;;4.97;;
16667;SDS011;8447;52.630;4.734;2024-02-26T01:26:25;5.37;;;4.00;;
16667;SDS011;8447;52.630;4.734;2024-02-26T01:28:53;9.03;;;5.10;;
16667;SDS011;8447;52.630;4.734;2024-02-26T01:31:20;6.37;;;4.83;;
16667;SDS011;8447;52.630;4.734;2024-02-26T01:33:47;6.33;;;5.47;;
16667;SDS011;8447;52.630;4.734;2024-02-26T01:36:13;7.97;;;5.97;;
16667;SDS011;8447;52.630;4.734;2024-02-26T01:38:39;5.80;;;4.50;;
16667;SDS011;8447;52.630;4.734;2024-02-26T01:41:06;7.07;;;5.33;;
16667;SDS011;8447;52.630;4.734;2024-02-26T01:43:32;8.57;;;4.90;;
16667;SDS011;8447;52.630;4.734;2024-02-26T01:46:00;7.00;;;5.00;;
16667;SDS011;8447;52.630;4.734;2024-02-26T01:48:26;7.33;;;5.77;;
16667;SDS011;8447;52.630;4.734;2024-02-26T01:50:53;6.90;;;5.17;;
16667;SDS011;8447;52.630;4.734;2024-02-26T01:53:19;5.97;;;4.60;;
16667;SDS011;8447;52.630;4.734;2024-02-26T01:55:46;7.50;;;5.57;;
16667;SDS011;8447;52.630;4.734;2024-02-26T01:58:12;7.23;;;5.10;;
16667;SDS011;8447;52.630;4.734;2024-02-26T02:00:39;8.10;;;5.33;;
16667;SDS011;8447;52.630;4.734;2024-02-26T02:03:06;7.60;;;5.47;;
16667;SDS011;8447;52.630;4.734;2024-02-26T02:05:33;6.13;;;4.37;;
16667;SDS011;8447;52.630;4.734;2024-02-26T02:07:59;6.87;;;5.13;;
16667;SDS011;8447;52.630;4.734;2024-02-26T02:10:28;6.73;;;5.67;;
16667;SDS011;8447;52.630;4.734;2024-02-26T02:12:55;7.47;;;5.33;;
16667;SDS011;8447;52.630;4.734;2024-02-26T02:15:22;6.73;;;4.63;;
16667;SDS011;8447;52.630;4.734;2024-02-26T02:17:49;6.80;;;5.63;;
16667;SDS011;8447;52.630;4.734;2024-02-26T02:20:16;5.90;;;4.43;;
16667;SDS011;8447;52.630;4.734;2024-02-26T02:22:45;6.73;;;4.97;;
16667;SDS011;8447;52.630;4.734;2024-02-26T02:25:11;7.23;;;5.00;;
16667;SDS011;8447;52.630;4.734;2024-02-26T02:27:37;6.13;;;4.37;;
16667;SDS011;8447;52.630;4.734;2024-02-26T02:30:04;7.03;;;5.43;;
16667;SDS011;8447;52.630;4.734;2024-02-26T02:32:31;9.43;;;5.57;;
16667;SDS011;8447;52.630;4.734;2024-02-26T02:34:58;8.10;;;5.40;;
16667;SDS011;8447;52.630;4.734;2024-02-26T02:37:24;7.13;;;5.10;;
16667;SDS011;8447;52.630;4.734;2024-02-26T02:39:52;7.80;;;5.57;;
16667;SDS011;8447;52.630;4.734;2024-02-26T02:42:20;7.80;;;5.13;;
16667;SDS011;8447;52.630;4.734;2024-02-26T02:44:46;8.60;;;5.40;;
16667;SDS011;8447;52.630;4.734;2024-02-26T02:47:12;9.10;;;5.60;;
16667;SDS011;8447;52.630;4.734;2024-02-26T02:49:39;8.03;;;4.73;;
16667;SDS011;8447;52.630;4.734;2024-02-26T02:52:05;8.00;;;5.50;;
16667;SDS011;8447;52.630;4.734;2024-02-26T02:54:32;6.53;;;4.77;;
16667;SDS011;8447;52.630;4.734;2024-02-26T02:56:59;7.33;;;5.57;;
16667;SDS011;8447;52.630;4.734;2024-02-26T02:59:26;6.33;;;5.00;;
16667;SDS011;8447;52.630;4.734;2024-02-26T03:01:52;7.43;;;4.90;;
16667;SDS011;8447;52.630;4.734;2024-02-26T03:04:18;5.67;;;4.00;;
16667;SDS011;8447;52.630;4.734;2024-02-26T03:06:45;7.40;;;5.67;;
16667;SDS011;8447;52.630;4.734;2024-02-26T03:09:11;6.37;;;4.83;;
16667;SDS011;8447;52.630;4.734;2024-02-26T03:11:38;6.77;;;5.33;;
16667;SDS011;8447;52.630;4.734;2024-02-26T03:14:06;6.67;;;4.73;;
16667;SDS011;8447;52.630;4.734;2024-02-26T03:16:32;6.20;;;4.77;;
16667;SDS011;8447;52.630;4.734;2024-02-26T03:18:59;5.40;;;4.23;;
16667;SDS011;8447;52.630;4.734;2024-02-26T03:21:25;6.30;;;4.93;;
16667;SDS011;8447;52.630;4.734;2024-02-26T03:23:52;6.70;;;4.30;;
16667;SDS011;8447;52.630;4.734;2024-02-26T03:26:18;5.87;;;5.00;;
16667;SDS011;8447;52.630;4.734;2024-02-26T03:28:44;8.13;;;5.50;;
16667;SDS011;8447;52.630;4.734;2024-02-26T03:31:12;6.10;;;4.70;;
16667;SDS011;8447;52.630;4.734;2024-02-26T03:33:39;5.93;;;3.57;;
16667;SDS011;8447;52.630;4.734;2024-02-26T03:36:05;6.17;;;4.80;;
16667;SDS011;8447;52.630;4.734;2024-02-26T03:38:32;5.67;;;4.43;;
16667;SDS011;8447;52.630;4.734;2024-02-26T03:40:59;5.70;;;4.50;;
16667;SDS011;8447;52.630;4.734;2024-02-26T03:43:25;4.90;;;3.80;;
16667;SDS011;8447;52.630;4.734;2024-02-26T03:45:54;5.57;;;4.00;;
16667;SDS011;8447;52.630;4.734;2024-02-26T03:48:22;5.20;;;4.13;;
16667;SDS011;8447;52.630;4.734;2024-02-26T03:50:48;4.93;;;3.73;;
16667;SDS011;8447;52.630;4.734;2024-02-26T03:53:14;6.00;;;4.27;;
16667;SDS011;8447;52.630;4.734;2024-02-26T03:55:41;5.47;;;4.00;;
16667;SDS011;8447;52.630;4.734;2024-02-26T03:58:07;6.00;;;4.53;;
16667;SDS011;8447;52.630;4.734;2024-02-26T04:00:34;6.27;;;4.47;;
16667;SDS011;8447;52.630;4.734;2024-02-26T04:03:00;7.80;;;5.10;;
16667;SDS011;8447;52.630;4.734;2024-02-26T04:05:28;7.83;;;5.17;;
16667;SDS011;8447;52.630;4.734;2024-02-26T04:07:54;6.60;;;4.60;;
16667;SDS011;8447;52.630;4.734;2024-02-26T04:10:21;4.97;;;3.43;;
16667;SDS011;8447;52.630;4.734;2024-02-26T04:12:47;4.87;;;3.80;;
16667;SDS011;8447;52.630;4.734;2024-02-26T04:15:13;3.90;;;3.33;;
16667;SDS011;8447;52.630;4.734;2024-02-26T04:17:40;5.60;;;4.70;;
16667;SDS011;8447;52.630;4.734;2024-02-26T04:20:07;9.40;;;4.07;;
16667;SDS011;8447;52.630;4.734;2024-02-26T04:22:36;5.93;;;4.00;;
16667;SDS011;8447;52.630;4.734;2024-02-26T04:25:02;5.43;;;3.80;;
16667;SDS011;8447;52.630;4.734;2024-02-26T04:27:29;3.27;;;2.97;;
16667;SDS011;8447;52.630;4.734;2024-02-26T04:29:55;5.53;;;3.37;;
16667;SDS011;8447;52.630;4.734;2024-02-26T04:32:21;4.70;;;3.80;;
16667;SDS011;8447;52.630;4.734;2024-02-26T04:34:48;4.33;;;3.93;;
16667;SDS011;8447;52.630;4.734;2024-02-26T04:37:14;3.53;;;3.23;;
16667;SDS011;8447;52.630;4.734;2024-02-26T04:39:42;4.57;;;3.77;;
16667;SDS011;8447;52.630;4.734;2024-02-26T04:42:08;5.23;;;4.10;;
16667;SDS011;8447;52.630;4.734;2024-02-26T04:44:34;3.30;;;3.00;;
16667;SDS011;8447;52.630;4.734;2024-02-26T04:47:01;3.03;;;2.73;;
16667;SDS011;8447;52.630;4.734;2024-02-26T04:49:27;7.10;;;3.80;;
16667;SDS011;8447;52.630;4.734;2024-02-26T04:51:54;4.77;;;4.00;;
16667;SDS011;8447;52.630;4.734;2024-02-26T04:54:20;5.40;;;3.63;;
16667;SDS011;8447;52.630;4.734;2024-02-26T04:56:48;3.53;;;3.23;;
16667;SDS011;8447;52.630;4.734;2024-02-26T04:59:14;4.23;;;3.10;;
16667;SDS011;8447;52.630;4.734;2024-02-26T05:01:40;3.50;;;3.13;;
16667;SDS011;8447;52.630;4.734;2024-02-26T05:04:07;3.93;;;3.47;;
16667;SDS011;8447;52.630;4.734;2024-02-26T05:06:33;3.60;;;3.30;;
16667;SDS011;8447;52.630;4.734;2024-02-26T05:08:59;4.07;;;3.37;;
16667;SDS011;8447;52.630;4.734;2024-02-26T05:11:26;3.23;;;2.70;;
16667;SDS011;8447;52.630;4.734;2024-02-26T05:13:54;4.37;;;3.03;;
16667;SDS011;8447;52.630;4.734;2024-02-26T05:16:20;4.63;;;2.93;;
16667;SDS011;8447;52.630;4.734;2024-02-26T05:18:49;3.67;;;3.07;;
16667;SDS011;8447;52.630;4.734;2024-02-26T05:21:16;4.23;;;2.50;;
16667;SDS011;8447;52.630;4.734;2024-02-26T05:23:42;5.10;;;2.80;;
16667;SDS011;8447;52.630;4.734;2024-02-26T05:26:08;3.57;;;2.50;;
16667;SDS011;8447;52.630;4.734;2024-02-26T05:28:35;3.87;;;2.13;;
16667;SDS011;8447;52.630;4.734;2024-02-26T05:31:05;2.17;;;1.97;;
16667;SDS011;8447;52.630;4.734;2024-02-26T05:33:32;6.00;;;2.60;;
16667;SDS011;8447;52.630;4.734;2024-02-26T05:35:58;3.03;;;2.17;;
16667;SDS011;8447;52.630;4.734;2024-02-26T05:38:29;2.40;;;1.87;;
16667;SDS011;8447;52.630;4.734;2024-02-26T05:40:56;2.57;;;2.37;;
16667;SDS011;8447;52.630;4.734;2024-02-26T05:43:23;3.70;;;2.40;;
16667;SDS011;8447;52.630;4.734;2024-02-26T05:45:50;3.00;;;2.07;;
16667;SDS011;8447;52.630;4.734;2024-02-26T05:48:19;2.07;;;1.83;;
16667;SDS011;8447;52.630;4.734;2024-02-26T05:50:45;1.70;;;1.53;;
16667;SDS011;8447;52.630;4.734;2024-02-26T05:53:11;2.70;;;1.50;;
16667;SDS011;8447;52.630;4.734;2024-02-26T05:55:38;3.67;;;1.97;;
16667;SDS011;8447;52.630;4.734;2024-02-26T05:58:04;2.13;;;1.77;;
16667;SDS011;8447;52.630;4.734;2024-02-26T06:00:31;3.13;;;1.90;;
16667;SDS011;8447;52.630;4.734;2024-02-26T06:02:57;2.07;;;1.93;;
16667;SDS011;8447;52.630;4.734;2024-02-26T06:05:25;2.40;;;1.80;;
16667;SDS011;8447;52.630;4.734;2024-02-26T06:07:51;2.60;;;2.40;;
16667;SDS011;8447;52.630;4.734;2024-02-26T06:10:18;3.50;;;2.10;;
16667;SDS011;8447;52.630;4.734;2024-02-26T06:12:46;3.00;;;2.23;;
16667;SDS011;8447;52.630;4.734;2024-02-26T06:15:12;3.83;;;2.10;;
16667;SDS011;8447;52.630;4.734;2024-02-26T06:17:39;2.40;;;1.83;;
16667;SDS011;8447;52.630;4.734;2024-02-26T06:20:06;3.67;;;1.60;;
16667;SDS011;8447;52.630;4.734;2024-02-26T06:22:38;3.27;;;2.13;;
16667;SDS011;8447;52.630;4.734;2024-02-26T06:25:04;2.60;;;2.07;;
16667;SDS011;8447;52.630;4.734;2024-02-26T06:27:31;3.00;;;2.13;;
16667;SDS011;8447;52.630;4.734;2024-02-26T06:29:57;5.77;;;1.87;;
16667;SDS011;8447;52.630;4.734;2024-02-26T06:32:23;3.40;;;2.43;;
16667;SDS011;8447;52.630;4.734;2024-02-26T06:34:52;3.87;;;2.20;;
16667;SDS011;8447;52.630;4.734;2024-02-26T06:37:19;3.13;;;2.83;;
16667;SDS011;8447;52.630;4.734;2024-02-26T06:39:47;3.33;;;2.00;;
16667;SDS011;8447;52.630;4.734;2024-02-26T06:42:13;3.43;;;2.13;;
16667;SDS011;8447;52.630;4.734;2024-02-26T06:44:40;2.27;;;2.07;;
16667;SDS011;8447;52.630;4.734;2024-02-26T06:47:06;3.53;;;2.17;;
16667;SDS011;8447;52.630;4.734;2024-02-26T06:49:32;2.30;;;2.00;;
16667;SDS011;8447;52.630;4.734;2024-02-26T06:51:59;3.13;;;2.60;;
16667;SDS011;8447;52.630;4.734;2024-02-26T06:54:25;2.97;;;2.33;;
16667;SDS011;8447;52.630;4.734;2024-02-26T06:56:53;3.67;;;2.13;;
16667;SDS011;8447;52.630;4.734;2024-02-26T06:59:19;2.57;;;2.17;;
16667;SDS011;8447;52.630;4.734;2024-02-26T07:01:46;2.83;;;1.73;;
16667;SDS011;8447;52.630;4.734;2024-02-26T07:04:12;3.33;;;2.63;;
16667;SDS011;8447;52.630;4.734;2024-02-26T07:06:38;2.67;;;1.87;;
16667;SDS011;8447;52.630;4.734;2024-02-26T07:09:05;3.10;;;2.10;;
16667;SDS011;8447;52.630;4.734;2024-02-26T07:11:31;2.67;;;2.17;;
16667;SDS011;8447;52.630;4.734;2024-02-26T07:13:59;3.63;;;2.23;;
16667;SDS011;8447;52.630;4.734;2024-02-26T07:16:26;2.57;;;1.90;;
16667;SDS011;8447;52.630;4.734;2024-02-26T07:18:53;1.53;;;1.43;;
16667;SDS011;8447;52.630;4.734;2024-02-26T07:21:19;3.70;;;1.70;;
16667;SDS011;8447;52.630;4.734;2024-02-26T07:23:45;2.00;;;1.73;;
16667;SDS011;8447;52.630;4.734;2024-02-26T07:26:12;1.93;;;1.67;;
16667;SDS011;8447;52.630;4.734;2024-02-26T07:28:38;4.00;;;1.80;;
16667;SDS011;8447;52.630;4.734;2024-02-26T07:31:06;4.30;;;1.57;;
16667;SDS011;8447;52.630;4.734;2024-02-26T07:33:32;3.00;;;1.40;;
16667;SDS011;8447;52.630;4.734;2024-02-26T07:35:58;2.60;;;1.67;;
16667;SDS011;8447;52.630;4.734;2024-02-26T07:38:25;1.60;;;1.37;;
16667;SDS011;8447;52.630;4.734;2024-02-26T07:40:51;2.97;;;1.47;;
16667;SDS011;8447;52.630;4.734;2024-02-26T07:43:18;3.10;;;1.60;;
16667;SDS011;8447;52.630;4.734;2024-02-26T07:45:44;3.90;;;1.50;;
16667;SDS011;8447;52.630;4.734;2024-02-26T07:48:12;1.47;;;1.30;;
16667;SDS011;8447;52.630;4.734;2024-02-26T07:50:39;1.63;;;1.37;;
16667;SDS011;8447;52.630;4.734;2024-02-26T07:53:05;1.20;;;1.10;;
16667;SDS011;8447;52.630;4.734;2024-02-26T07:55:31;1.50;;;1.40;;
16667;SDS011;8447;52.630;4.734;2024-02-26T07:57:58;5.10;;;1.40;;
16667;SDS011;8447;52.630;4.734;2024-02-26T08:00:25;1.90;;;1.10;;
16667;SDS011;8447;52.630;4.734;2024-02-26T08:02:53;1.37;;;1.23;;
16667;SDS011;8447;52.630;4.734;2024-02-26T08:05:21;2.90;;;1.30;;
16667;SDS011;8447;52.630;4.734;2024-02-26T08:07:47;1.27;;;1.17;;
16667;SDS011;8447;52.630;4.734;2024-02-26T08:10:14;1.23;;;1.03;;
16667;SDS011;8447;52.630;4.734;2024-02-26T08:12:40;1.27;;;0.90;;
16667;SDS011;8447;52.630;4.734;2024-02-26T08:15:06;1.60;;;1.03;;
16667;SDS011;8447;52.630;4.734;2024-02-26T08:17:32;2.13;;;0.97;;
16667;SDS011;8447;52.630;4.734;2024-02-26T08:19:59;2.40;;;1.10;;
16667;SDS011;8447;52.630;4.734;2024-02-26T08:22:26;0.73;;;0.73;;
16667;SDS011;8447;52.630;4.734;2024-02-26T08:24:53;6.00;;;0.90;;
16667;SDS011;8447;52.630;4.734;2024-02-26T08:27:19;0.83;;;0.83;;
16667;SDS011;8447;52.630;4.734;2024-02-26T08:29:46;1.00;;;0.90;;
16667;SDS011;8447;52.630;4.734;2024-02-26T08:32:12;1.93;;;1.10;;
16667;SDS011;8447;52.630;4.734;2024-02-26T08:34:38;2.57;;;1.10;;
16667;SDS011;8447;52.630;4.734;2024-02-26T08:37:05;3.13;;;1.30;;
16667;SDS011;8447;52.630;4.734;2024-02-26T08:39:33;2.57;;;0.97;;
16667;SDS011;8447;52.630;4.734;2024-02-26T08:41:59;0.80;;;0.63;;
16667;SDS011;8447;52.630;4.734;2024-02-26T08:44:26;3.20;;;1.27;;
16667;SDS011;8447;52.630;4.734;2024-02-26T08:46:52;2.47;;;0.90;;
16667;SDS011;8447;52.630;4.734;2024-02-26T08:49:18;1.03;;;1.00;;
16667;SDS011;8447;52.630;4.734;2024-02-26T08:51:45;1.50;;;1.20;;
16667;SDS011;8447;52.630;4.734;2024-02-26T08:54:11;1.10;;;1.03;;
16667;SDS011;8447;52.630;4.734;2024-02-26T08:56:39;2.10;;;1.00;;
16667;SDS011;8447;52.630;4.734;2024-02-26T08:59:05;3.57;;;0.93;;
16667;SDS011;8447;52.630;4.734;2024-02-26T09:01:32;1.63;;;1.10;;
16667;SDS011;8447;52.630;4.734;2024-02-26T09:03:58;1.50;;;1.07;;
16667;SDS011;8447;52.630;4.734;2024-02-26T09:06:25;1.20;;;1.10;;
16667;SDS011;8447;52.630;4.734;2024-02-26T09:08:51;2.53;;;0.90;;
16667;SDS011;8447;52.630;4.734;2024-02-26T09:11:18;1.63;;;1.30;;
16667;SDS011;8447;52.630;4.734;2024-02-26T09:13:47;1.87;;;0.97;;
16667;SDS011;8447;52.630;4.734;2024-02-26T09:16:13;3.30;;;1.03;;
16667;SDS011;8447;52.630;4.734;2024-02-26T09:18:40;4.10;;;1.40;;
16667;SDS011;8447;52.630;4.734;2024-02-26T09:21:06;1.10;;;1.00;;
16667;SDS011;8447;52.630;4.734;2024-02-26T09:23:33;2.40;;;0.97;;
16667;SDS011;8447;52.630;4.734;2024-02-26T09:26:00;1.50;;;0.97;;
16667;SDS011;8447;52.630;4.734;2024-02-26T09:28:26;1.30;;;1.10;;
16667;SDS011;8447;52.630;4.734;2024-02-26T09:30:54;4.03;;;0.80;;
16667;SDS011;8447;52.630;4.734;2024-02-26T09:33:20;2.30;;;1.07;;
16667;SDS011;8447;52.630;4.734;2024-02-26T09:35:47;2.83;;;1.23;;
16667;SDS011;8447;52.630;4.734;2024-02-26T09:38:13;1.83;;;1.23;;
16667;SDS011;8447;52.630;4.734;2024-02-26T09:40:39;2.60;;;1.33;;
16667;SDS011;8447;52.630;4.734;2024-02-26T09:43:06;1.10;;;1.00;;
16667;SDS011;8447;52.630;4.734;2024-02-26T09:45:36;1.60;;;1.20;;
16667;SDS011;8447;52.630;4.734;2024-02-26T09:48:04;3.70;;;1.40;;
16667;SDS011;8447;52.630;4.734;2024-02-26T09:50:31;2.73;;;1.10;;
16667;SDS011;8447;52.630;4.734;2024-02-26T09:52:58;1.50;;;1.03;;
16667;SDS011;8447;52.630;4.734;2024-02-26T09:55:27;1.70;;;1.00;;
16667;SDS011;8447;52.630;4.734;2024-02-26T09:57:54;1.30;;;1.07;;
16667;SDS011;8447;52.630;4.734;2024-02-26T10:00:21;1.20;;;1.10;;
16667;SDS011;8447;52.630;4.734;2024-02-26T10:02:48;2.73;;;1.60;;
16667;SDS011;8447;52.630;4.734;2024-02-26T10:05:16;2.30;;;1.27;;
16667;SDS011;8447;52.630;4.734;2024-02-26T10:07:43;2.83;;;1.50;;
16667;SDS011;8447;52.630;4.734;2024-02-26T10:10:10;1.13;;;1.03;;
16667;SDS011;8447;52.630;4.734;2024-02-26T10:12:36;2.33;;;1.33;;
16667;SDS011;8447;52.630;4.734;2024-02-26T10:15:02;1.63;;;1.13;;
16667;SDS011;8447;52.630;4.734;2024-02-26T10:17:29;1.07;;;0.73;;
16667;SDS011;8447;52.630;4.734;2024-02-26T10:19:58;2.03;;;1.10;;
16667;SDS011;8447;52.630;4.734;2024-02-26T10:22:37;2.43;;;1.40;;
16667;SDS011;8447;52.630;4.734;2024-02-26T10:25:04;1.17;;;1.03;;
16667;SDS011;8447;52.630;4.734;2024-02-26T10:27:30;1.37;;;0.93;;
16667;SDS011;8447;52.630;4.734;2024-02-26T10:29:57;1.97;;;1.07;;
16667;SDS011;8447;52.630;4.734;2024-02-26T10:32:24;1.97;;;0.83;;
16667;SDS011;8447;52.630;4.734;2024-02-26T10:34:50;4.80;;;1.00;;
16667;SDS011;8447;52.630;4.734;2024-02-26T10:37:21;3.40;;;1.23;;
16667;SDS011;8447;52.630;4.734;2024-02-26T10:39:49;1.20;;;0.90;;
16667;SDS011;8447;52.630;4.734;2024-02-26T10:42:16;1.10;;;0.90;;
16667;SDS011;8447;52.630;4.734;2024-02-26T10:44:44;1.40;;;1.30;;
16667;SDS011;8447;52.630;4.734;2024-02-26T10:47:13;2.53;;;1.20;;
16667;SDS011;8447;52.630;4.734;2024-02-26T10:49:44;2.63;;;1.07;;
16667;SDS011;8447;52.630;4.734;2024-02-26T10:52:11;2.70;;;1.20;;
16667;SDS011;8447;52.630;4.734;2024-02-26T10:54:37;1.33;;;1.00;;
16667;SDS011;8447;52.630;4.734;2024-02-26T10:57:08;1.67;;;0.90;;
16667;SDS011;8447;52.630;4.734;2024-02-26T10:59:34;5.17;;;0.93;;
16667;SDS011;8447;52.630;4.734;2024-02-26T11:02:01;2.47;;;0.80;;
16667;SDS011;8447;52.630;4.734;2024-02-26T11:04:28;2.33;;;1.00;;
16667;SDS011;8447;52.630;4.734;2024-02-26T11:06:56;0.80;;;0.80;;
16667;SDS011;8447;52.630;4.734;2024-02-26T11:09:23;2.73;;;0.90;;
16667;SDS011;8447;52.630;4.734;2024-02-26T11:11:49;1.20;;;0.90;;
16667;SDS011;8447;52.630;4.734;2024-02-26T11:14:21;1.70;;;0.70;;
16667;SDS011;8447;52.630;4.734;2024-02-26T11:16:47;5.77;;;1.87;;
16667;SDS011;8447;52.630;4.734;2024-02-26T11:19:15;0.80;;;0.80;;
16667;SDS011;8447;52.630;4.734;2024-02-26T11:21:42;1.30;;;0.87;;
16667;SDS011;8447;52.630;4.734;2024-02-26T11:24:09;1.93;;;1.10;;
16667;SDS011;8447;52.630;4.734;2024-02-26T11:26:38;2.00;;;0.90;;
16667;SDS011;8447;52.630;4.734;2024-02-26T11:29:05;2.47;;;0.90;;
16667;SDS011;8447;52.630;4.734;2024-02-26T11:31:36;1.63;;;0.93;;
16667;SDS011;8447;52.630;4.734;2024-02-26T11:34:03;2.97;;;1.10;;
16667;SDS011;8447;52.630;4.734;2024-02-26T11:36:28;0.97;;;0.83;;
16667;SDS011;8447;52.630;4.734;2024-02-26T11:38:54;0.97;;;0.73;;
16667;SDS011;8447;52.630;4.734;2024-02-26T11:41:21;1.80;;;1.30;;
16667;SDS011;8447;52.630;4.734;2024-02-26T11:43:51;3.77;;;1.00;;
16667;SDS011;8447;52.630;4.734;2024-02-26T11:46:27;2.07;;;1.03;;
16667;SDS011;8447;52.630;4.734;2024-02-26T11:49:00;2.70;;;1.07;;
16667;SDS011;8447;52.630;4.734;2024-02-26T11:51:26;5.93;;;0.80;;
16667;SDS011;8447;52.630;4.734;2024-02-26T11:53:55;1.87;;;0.97;;
16667;SDS011;8447;52.630;4.734;2024-02-26T11:56:24;1.47;;;0.97;;
16667;SDS011;8447;52.630;4.734;2024-02-26T11:58:58;1.67;;;0.80;;
16667;SDS011;8447;52.630;4.734;2024-02-26T12:01:37;1.37;;;0.80;;
16667;SDS011;8447;52.630;4.734;2024-02-26T12:04:05;2.20;;;0.90;;
16667;SDS011;8447;52.630;4.734;2024-02-26T12:06:39;2.27;;;1.03;;
16667;SDS011;8447;52.630;4.734;2024-02-26T12:09:05;1.57;;;1.17;;
16667;SDS011;8447;52.630;4.734;2024-02-26T12:11:33;2.73;;;1.10;;
16667;SDS011;8447;52.630;4.734;2024-02-26T12:14:03;0.97;;;0.80;;
16667;SDS011;8447;52.630;4.734;2024-02-26T12:16:35;1.40;;;0.87;;
16667;SDS011;8447;52.630;4.734;2024-02-26T12:19:03;2.37;;;0.93;;
16667;SDS011;8447;52.630;4.734;2024-02-26T12:21:31;3.17;;;1.27;;
16667;SDS011;8447;52.630;4.734;2024-02-26T12:24:06;1.93;;;1.10;;
16667;SDS011;8447;52.630;4.734;2024-02-26T12:26:32;0.47;;;0.47;;
16667;SDS011;8447;52.630;4.734;2024-02-26T12:28:59;1.47;;;0.90;;
16667;SDS011;8447;52.630;4.734;2024-02-26T12:31:26;3.20;;;1.17;;
16667;SDS011;8447;52.630;4.734;2024-02-26T12:33:53;1.90;;;1.20;;
16667;SDS011;8447;52.630;4.734;2024-02-26T12:36:20;0.90;;;0.60;;
16667;SDS011;8447;52.630;4.734;2024-02-26T12:38:47;1.77;;;1.20;;
16667;SDS011;8447;52.630;4.734;2024-02-26T12:41:14;2.37;;;0.80;;
16667;SDS011;8447;52.630;4.734;2024-02-26T12:43:41;1.17;;;1.10;;
16667;SDS011;8447;52.630;4.734;2024-02-26T12:46:07;2.13;;;1.10;;
16667;SDS011;8447;52.630;4.734;2024-02-26T12:48:33;2.57;;;0.90;;
16667;SDS011;8447;52.630;4.734;2024-02-26T12:51:00;4.90;;;1.43;;
16667;SDS011;8447;52.630;4.734;2024-02-26T12:53:26;3.07;;;1.60;;
16667;SDS011;8447;52.630;4.734;2024-02-26T12:55:54;1.20;;;1.10;;
16667;SDS011;8447;52.630;4.734;2024-02-26T12:58:21;3.63;;;1.70;;
16667;SDS011;8447;52.630;4.734;2024-02-26T13:00:49;2.07;;;1.07;;
16667;SDS011;8447;52.630;4.734;2024-02-26T13:03:16;2.93;;;1.13;;
16667;SDS011;8447;52.630;4.734;2024-02-26T13:05:42;1.10;;;1.00;;
16667;SDS011;8447;52.630;4.734;2024-02-26T13:08:09;1.83;;;0.60;;
16667;SDS011;8447;52.630;4.734;2024-02-26T13:10:36;1.87;;;0.90;;
16667;SDS011;8447;52.630;4.734;2024-02-26T13:13:04;2.87;;;1.30;;
16667;SDS011;8447;52.630;4.734;2024-02-26T13:15:31;2.60;;;1.40;;
16667;SDS011;8447;52.630;4.734;2024-02-26T13:17:58;3.80;;;1.53;;
16667;SDS011;8447;52.630;4.734;2024-02-26T13:20:34;1.57;;;1.00;;
16667;SDS011;8447;52.630;4.734;2024-02-26T13:23:01;4.43;;;1.43;;
16667;SDS011;8447;52.630;4.734;2024-02-26T13:25:28;1.77;;;1.33;;
16667;SDS011;8447;52.630;4.734;2024-02-26T13:28:05;1.27;;;0.80;;
16667;SDS011;8447;52.630;4.734;2024-02-26T13:30:32;1.23;;;1.10;;
16667;SDS011;8447;52.630;4.734;2024-02-26T13:33:06;1.30;;;0.80;;
16667;SDS011;8447;52.630;4.734;2024-02-26T13:35:33;2.90;;;1.20;;
16667;SDS011;8447;52.630;4.734;2024-02-26T13:38:00;3.23;;;1.27;;
16667;SDS011;8447;52.630;4.734;2024-02-26T13:40:26;3.53;;;1.27;;
16667;SDS011;8447;52.630;4.734;2024-02-26T13:42:54;5.37;;;1.13;;
16667;SDS011;8447;52.630;4.734;2024-02-26T13:45:22;1.80;;;1.03;;
16667;SDS011;8447;52.630;4.734;2024-02-26T13:47:48;6.90;;;1.30;;
16667;SDS011;8447;52.630;4.734;2024-02-26T13:50:15;3.60;;;1.63;;
16667;SDS011;8447;52.630;4.734;2024-02-26T13:52:41;1.90;;;1.30;;
16667;SDS011;8447;52.630;4.734;2024-02-26T13:55:09;2.70;;;1.10;;
16667;SDS011;8447;52.630;4.734;2024-02-26T13:57:36;3.17;;;1.30;;
16667;SDS011;8447;52.630;4.734;2024-02-26T14:00:02;3.47;;;1.00;;
16667;SDS011;8447;52.630;4.734;2024-02-26T14:02:30;4.00;;;1.33;;
16667;SDS011;8447;52.630;4.734;2024-02-26T14:04:57;2.87;;;1.30;;
16667;SDS011;8447;52.630;4.734;2024-02-26T14:07:23;1.33;;;0.93;;
16667;SDS011;8447;52.630;4.734;2024-02-26T14:09:49;3.10;;;1.03;;
16667;SDS011;8447;52.630;4.734;2024-02-26T14:12:16;2.93;;;1.30;;
16667;SDS011;8447;52.630;4.734;2024-02-26T14:14:43;5.00;;;1.00;;
16667;SDS011;8447;52.630;4.734;2024-02-26T14:17:11;1.70;;;0.67;;
16667;SDS011;8447;52.630;4.734;2024-02-26T14:19:39;2.97;;;1.00;;
16667;SDS011;8447;52.630;4.734;2024-02-26T14:22:10;1.60;;;0.70;;
16667;SDS011;8447;52.630;4.734;2024-02-26T14:24:36;3.10;;;0.80;;
16667;SDS011;8447;52.630;4.734;2024-02-26T14:27:03;2.37;;;0.80;;
16667;SDS011;8447;52.630;4.734;2024-02-26T14:29:30;1.27;;;0.80;;
16667;SDS011;8447;52.630;4.734;2024-02-26T14:31:56;4.00;;;1.00;;
16667;SDS011;8447;52.630;4.734;2024-02-26T14:34:22;1.87;;;0.70;;
16667;SDS011;8447;52.630;4.734;2024-02-26T14:36:50;2.83;;;0.80;;
16667;SDS011;8447;52.630;4.734;2024-02-26T14:39:16;5.83;;;1.43;;
16667;SDS011;8447;52.630;4.734;2024-02-26T14:41:43;8.73;;;0.73;;
16667;SDS011;8447;52.630;4.734;2024-02-26T14:44:09;6.10;;;1.30;;
16667;SDS011;8447;52.630;4.734;2024-02-26T14:46:35;1.77;;;0.80;;
16667;SDS011;8447;52.630;4.734;2024-02-26T14:49:02;7.90;;;1.30;;
16667;SDS011;8447;52.630;4.734;2024-02-26T14:51:28;2.27;;;0.67;;
16667;SDS011;8447;52.630;4.734;2024-02-26T14:53:56;3.77;;;0.90;;
16667;SDS011;8447;52.630;4.734;2024-02-26T14:56:24;1.03;;;0.67;;
16667;SDS011;8447;52.630;4.734;2024-02-26T14:58:50;3.83;;;1.00;;